Time;durP1;ratioP1;P1;durP2;ratioP2;P2;SDS_P1;SDS_P2;PMS_P1;PMS_P2;Temp;Humidity;BMP_temperature;BMP_pressure;BME280_temperature;BME280_humidity;BME280_pressure;Samples;Min_cycle;Max_cycle;Signal;HPM_P1;HPM_P2
2022/06/14 00:03:11;;;;;;;3.83;1.10;;;11.70;1.00;;;;;;5034355;28;20195;-78
2022/06/14 00:05:37;;;;;;;5.30;1.40;;;11.70;1.00;;;;;;5034368;28;20283;-77
2022/06/14 00:08:03;;;;;;;3.67;1.30;;;11.60;1.00;;;;;;5049632;28;20278;-78
2022/06/14 00:10:28;;;;;;;2.73;1.30;;;11.60;1.00;;;;;;5034421;28;20200;-78
2022/06/14 00:12:54;;;;;;;2.87;0.93;;;11.50;1.00;;;;;;5034142;28;20172;-78
2022/06/14 00:15:21;;;;;;;2.67;0.93;;;11.40;1.00;;;;;;5034652;28;20694;-78
2022/06/14 00:17:46;;;;;;;4.00;1.13;;;11.40;1.00;;;;;;5035276;28;20168;-77
2022/06/14 00:20:12;;;;;;;6.53;1.33;;;11.30;1.00;;;;;;5053181;28;20181;-77
2022/06/14 00:22:38;;;;;;;2.40;1.13;;;11.30;1.00;;;;;;5038969;28;20733;-78
2022/06/14 00:25:05;;;;;;;5.07;1.30;;;11.30;1.00;;;;;;5037529;28;20295;-78
2022/06/14 00:27:30;;;;;;;2.80;1.10;;;11.20;46.80;;;;;;5036300;28;20546;-77
2022/06/14 00:29:56;;;;;;;2.40;0.90;;;11.20;9.80;;;;;;5052949;28;20182;-77
2022/06/14 00:32:22;;;;;;;2.60;1.10;;;11.10;6.50;;;;;;5038424;28;20230;-78
2022/06/14 00:34:48;;;;;;;3.90;1.27;;;11.10;2.40;;;;;;5053357;28;20200;-77
2022/06/14 00:37:17;;;;;;;3.43;1.30;;;11.10;1.00;;;;;;5037288;28;20184;-77
2022/06/14 00:39:43;;;;;;;3.67;1.27;;;11.00;16.30;;;;;;5037271;28;20172;-76
2022/06/14 00:42:20;;;;;;;2.30;1.07;;;11.10;1.00;;;;;;5037195;28;20181;-78
2022/06/14 00:45:03;;;;;;;1.67;1.30;;;11.00;1.00;;;;;;5037227;28;20207;-77
2022/06/14 00:47:32;;;;;;;4.23;1.30;;;11.00;1.00;;;;;;5052849;28;20175;-78
2022/06/14 00:50:01;;;;;;;3.20;1.07;;;10.90;10.40;;;;;;5037271;28;20168;-78
2022/06/14 00:52:38;;;;;;;5.73;1.17;;;10.90;15.00;;;;;;5052079;28;20176;-78
2022/06/14 00:55:11;;;;;;;3.83;1.10;;;10.80;15.30;;;;;;5051552;28;20666;-78
2022/06/14 00:57:46;;;;;;;1.77;0.97;;;10.70;82.30;;;;;;5036447;28;20259;-78
2022/06/14 01:00:19;;;;;;;4.07;1.23;;;10.70;99.90;;;;;;5036309;28;20156;-78
2022/06/14 01:02:50;;;;;;;3.93;1.20;;;10.60;99.90;;;;;;5037996;28;20573;-78
2022/06/14 01:05:27;;;;;;;3.83;1.30;;;10.60;99.90;;;;;;5036078;28;20209;-78
2022/06/14 01:07:58;;;;;;;6.00;1.40;;;10.60;99.90;;;;;;5034705;28;20229;-77
2022/06/14 01:10:32;;;;;;;4.23;1.23;;;10.50;99.90;;;;;;5036258;28;20186;-77
2022/06/14 01:13:01;;;;;;;2.53;1.30;;;10.50;99.90;;;;;;5036098;28;20196;-78
2022/06/14 01:15:31;;;;;;;5.63;1.30;;;10.50;99.90;;;;;;5034765;28;20200;-77
2022/06/14 01:18:08;;;;;;;3.53;1.13;;;10.50;99.90;;;;;;5051072;28;20185;-78
2022/06/14 01:20:35;;;;;;;1.90;1.20;;;10.40;99.90;;;;;;5036239;28;20157;-77
2022/06/14 01:23:02;;;;;;;2.10;1.10;;;10.40;99.90;;;;;;5036176;28;20192;-78
2022/06/14 01:25:35;;;;;;;5.23;1.23;;;10.30;99.90;;;;;;5036215;28;20593;-77
2022/06/14 01:28:01;;;;;;;3.97;1.20;;;10.30;99.90;;;;;;5052089;28;20176;-78
2022/06/14 01:30:34;;;;;;;5.50;1.60;;;10.30;99.90;;;;;;5051962;28;20565;-78
2022/06/14 01:33:06;;;;;;;5.80;1.57;;;10.30;99.90;;;;;;5036755;28;20753;-77
2022/06/14 01:35:35;;;;;;;1.80;1.30;;;10.30;99.90;;;;;;5051914;28;20555;-77
2022/06/14 01:38:05;;;;;;;1.97;1.00;;;10.20;99.90;;;;;;5036709;28;20200;-78
2022/06/14 01:41:02;;;;;;;3.77;1.33;;;10.10;99.90;;;;;;5036186;28;20172;-77
2022/06/14 01:43:56;;;;;;;2.70;1.10;;;10.20;99.90;;;;;;5051510;28;20257;-77
2022/06/14 01:46:25;;;;;;;2.33;1.30;;;10.10;99.90;;;;;;5037095;28;20173;-76
2022/06/14 01:52:03;;;;;;;1.70;1.10;;;10.10;99.90;;;;;;5038769;28;20240;-78
2022/06/14 01:54:43;;;;;;;5.20;1.30;;;10.00;99.90;;;;;;5036871;28;20188;-77
2022/06/14 01:57:31;;;;;;;3.20;1.30;;;10.00;99.90;;;;;;5037609;28;20180;-78
2022/06/14 02:00:10;;;;;;;2.70;1.37;;;9.90;99.90;;;;;;5035533;28;20160;-77
2022/06/14 02:04:37;;;;;;;3.33;1.10;;;10.00;99.90;;;;;;5035555;28;20168;-78
2022/06/14 02:05:52;;;;;;;2.60;1.13;;;9.90;99.90;;;;;;5039804;28;20259;-77
2022/06/14 02:08:23;;;;;;;3.63;1.20;;;9.90;99.90;;;;;;5035674;28;20171;-77
2022/06/14 02:11:12;;;;;;;2.23;1.03;;;9.90;99.90;;;;;;5035067;28;20184;-78
2022/06/14 02:14:04;;;;;;;1.40;1.07;;;9.80;99.90;;;;;;5050240;28;20284;-78
2022/06/14 02:16:37;;;;;;;3.07;1.20;;;9.70;99.90;;;;;;5034677;28;20157;-77
2022/06/14 02:19:12;;;;;;;3.77;1.33;;;9.70;99.90;;;;;;5035035;28;20153;-78
2022/06/14 02:21:45;;;;;;;3.40;1.07;;;9.70;99.90;;;;;;5034885;28;20243;-77
2022/06/14 02:24:32;;;;;;;5.70;1.27;;;9.70;99.90;;;;;;5050520;28;20212;-78
2022/06/14 02:27:00;;;;;;;6.00;1.20;;;9.60;99.90;;;;;;5035248;28;20525;-78
2022/06/14 02:29:42;;;;;;;3.77;1.20;;;9.60;99.90;;;;;;5050993;28;20225;-77
2022/06/14 02:32:17;;;;;;;2.13;1.10;;;9.50;99.90;;;;;;5037540;28;20588;-77
2022/06/14 02:34:51;;;;;;;3.83;1.03;;;9.50;99.90;;;;;;5035746;28;20361;-78
2022/06/14 02:37:23;;;;;;;3.40;1.10;;;9.50;99.90;;;;;;5049953;28;20179;-77
2022/06/14 02:40:09;;;;;;;3.20;1.20;;;9.50;99.90;;;;;;5033994;28;20638;-77
2022/06/14 02:42:43;;;;;;;3.97;1.10;;;9.40;99.90;;;;;;5032704;28;20175;-77
2022/06/14 02:45:18;;;;;;;3.10;1.30;;;9.30;99.90;;;;;;5034301;28;20299;-77
2022/06/14 02:48:10;;;;;;;3.23;1.27;;;9.30;99.90;;;;;;5034013;28;20610;-76
2022/06/14 02:50:42;;;;;;;3.37;1.10;;;9.30;99.90;;;;;;5033326;28;20160;-78
2022/06/14 02:53:10;;;;;;;4.73;1.07;;;9.30;99.90;;;;;;5033771;28;20157;-76
2022/06/14 02:55:43;;;;;;;4.43;1.37;;;9.30;99.90;;;;;;5033885;28;20184;-78
2022/06/14 02:58:30;;;;;;;4.13;1.77;;;9.20;99.90;;;;;;5033990;28;20156;-76
2022/06/14 03:01:10;;;;;;;2.30;1.10;;;9.20;99.90;;;;;;5034889;28;20645;-79
2022/06/14 03:03:56;;;;;;;3.13;1.43;;;9.20;99.90;;;;;;5034001;28;20207;-76
2022/06/14 03:06:32;;;;;;;2.83;1.33;;;9.20;99.90;;;;;;5034196;28;20549;-77
2022/06/14 03:09:36;;;;;;;4.30;1.63;;;9.10;99.90;;;;;;5033844;28;20167;-77
2022/06/14 03:12:25;;;;;;;2.17;1.13;;;9.10;99.90;;;;;;5031450;28;20188;-76
2022/06/14 03:15:12;;;;;;;7.63;1.40;;;9.10;99.90;;;;;;5033593;28;20692;-76
2022/06/14 03:18:04;;;;;;;4.27;1.47;;;9.10;99.90;;;;;;5033434;28;20695;-76
2022/06/14 03:20:56;;;;;;;1.40;1.10;;;9.00;99.90;;;;;;5033584;28;20157;-76
2022/06/14 03:23:46;;;;;;;4.67;1.40;;;9.00;99.90;;;;;;5048325;28;20259;-76
2022/06/14 03:26:20;;;;;;;3.63;1.30;;;9.00;99.90;;;;;;5033387;28;20588;-76
2022/06/14 03:29:15;;;;;;;2.40;1.10;;;8.90;99.90;;;;;;5031924;28;20172;-76
2022/06/14 03:31:52;;;;;;;2.50;1.10;;;9.00;99.90;;;;;;5033392;28;20658;-76
2022/06/14 03:34:35;;;;;;;2.23;1.20;;;8.90;99.90;;;;;;5033003;28;20214;-76
2022/06/14 03:37:02;;;;;;;3.70;1.30;;;8.90;99.90;;;;;;5033157;28;20163;-76
2022/06/14 03:39:34;;;;;;;2.03;1.00;;;8.80;99.90;;;;;;5032921;28;20176;-76
2022/06/14 03:42:04;;;;;;;2.30;1.07;;;8.80;99.90;;;;;;5048620;28;20207;-76
2022/06/14 03:44:31;;;;;;;4.43;1.30;;;8.80;99.90;;;;;;5031720;28;20274;-77
2022/06/14 03:47:15;;;;;;;2.43;1.20;;;8.80;99.90;;;;;;5033024;28;20164;-76
2022/06/14 03:49:57;;;;;;;2.20;1.00;;;8.80;99.90;;;;;;5033250;28;20156;-77
2022/06/14 03:53:06;;;;;;;2.10;1.07;;;8.80;99.90;;;;;;5021694;28;20203;-76
2022/06/14 03:55:49;;;;;;;4.90;1.10;;;8.70;99.90;;;;;;5056654;28;20207;-76
2022/06/14 03:58:32;;;;;;;3.10;1.23;;;8.70;99.90;;;;;;5026527;28;20254;-77
2022/06/14 04:01:15;;;;;;;2.30;1.23;;;8.70;99.90;;;;;;5056102;28;20164;-77
2022/06/14 04:03:59;;;;;;;4.43;1.30;;;8.70;99.90;;;;;;5036971;28;20245;-78
2022/06/14 04:06:43;;;;;;;2.73;1.37;;;8.70;99.90;;;;;;5036358;28;20207;-77
2022/06/14 04:09:23;;;;;;;2.37;1.30;;;8.70;99.90;;;;;;5037377;28;20269;-76
2022/06/14 04:12:07;;;;;;;3.57;1.53;;;8.70;99.90;;;;;;5037598;28;20545;-77
2022/06/14 04:14:50;;;;;;;4.07;1.23;;;8.70;99.90;;;;;;5037357;28;20662;-77
2022/06/14 04:17:33;;;;;;;2.67;1.30;;;8.70;99.90;;;;;;5035293;28;20630;-77
2022/06/14 04:20:16;;;;;;;2.33;1.50;;;8.70;99.90;;;;;;5035364;28;20175;-76
2022/06/14 04:23:44;;;;;;;2.33;1.50;;;8.70;99.90;;;;;;5036555;28;20172;-77
2022/06/14 04:26:14;;;;;;;4.53;1.23;;;8.70;99.90;;;;;;5004853;23;20726;-76
2022/06/14 04:28:43;;;;;;;1.77;1.40;;;8.80;99.90;;;;;;4996214;28;20224;-75
2022/06/14 04:31:24;;;;;;;2.73;1.47;;;8.80;99.90;;;;;;5012060;28;20184;-76
2022/06/14 04:34:02;;;;;;;2.07;1.37;;;8.80;99.90;;;;;;4997537;28;20205;-76
2022/06/14 04:36:34;;;;;;;3.60;1.27;;;8.80;99.90;;;;;;4997335;28;20710;-76
2022/06/14 04:39:09;;;;;;;4.13;1.30;;;8.80;99.90;;;;;;4996057;28;20189;-76
2022/06/14 04:42:00;;;;;;;5.30;1.47;;;8.90;99.90;;;;;;4997466;28;20643;-76
2022/06/14 04:44:42;;;;;;;5.07;1.13;;;8.90;99.90;;;;;;4996443;28;20687;-76
2022/06/14 04:47:28;;;;;;;3.93;1.30;;;8.90;99.90;;;;;;4997098;28;20192;-76
2022/06/14 04:49:59;;;;;;;2.13;1.03;;;8.90;99.90;;;;;;4995776;28;20256;-76
2022/06/14 04:52:32;;;;;;;5.10;1.20;;;8.90;99.90;;;;;;4996964;28;20192;-76
2022/06/14 04:55:05;;;;;;;3.20;1.57;;;8.90;99.90;;;;;;4996579;28;20174;-76
2022/06/14 04:57:43;;;;;;;2.53;1.40;;;9.00;99.90;;;;;;4995220;28;20624;-76
2022/06/14 05:00:11;;;;;;;8.80;1.73;;;9.00;99.90;;;;;;4994929;28;20212;-76
2022/06/14 05:02:46;;;;;;;2.20;1.30;;;9.00;99.90;;;;;;4997040;28;20182;-74
2022/06/14 05:05:50;;;;;;;4.83;1.40;;;9.10;99.90;;;;;;4995359;28;20205;-75
2022/06/14 05:08:23;;;;;;;4.97;1.33;;;9.10;99.90;;;;;;4995255;28;20613;-74
2022/06/14 05:11:08;;;;;;;3.07;1.30;;;9.20;99.90;;;;;;4995708;28;20158;-74
2022/06/14 05:13:58;;;;;;;2.27;1.30;;;9.20;99.90;;;;;;4995911;28;20154;-74
2022/06/14 05:16:33;;;;;;;4.27;1.87;;;9.30;99.90;;;;;;4995704;28;20677;-74
2022/06/14 05:19:09;;;;;;;3.73;1.50;;;9.40;99.90;;;;;;4995730;28;20211;-75
2022/06/14 05:21:49;;;;;;;3.33;1.10;;;9.50;99.90;;;;;;4995793;28;20624;-74
2022/06/14 05:24:16;;;;;;;3.43;1.27;;;9.50;99.90;;;;;;4995892;28;20162;-75
2022/06/14 05:26:41;;;;;;;5.47;1.83;;;9.60;99.90;;;;;;4994145;28;20289;-75
2022/06/14 05:29:22;;;;;;;3.53;1.57;;;9.60;99.90;;;;;;4995500;28;20754;-75
2022/06/14 05:32:21;;;;;;;2.50;1.40;;;9.70;99.90;;;;;;4995828;28;20616;-75
2022/06/14 05:35:20;;;;;;;2.67;1.47;;;9.80;99.90;;;;;;4993763;28;20682;-77
2022/06/14 05:38:16;;;;;;;3.83;1.40;;;9.80;99.90;;;;;;4995316;28;20178;-75
2022/06/14 05:40:53;;;;;;;4.13;1.37;;;9.90;99.90;;;;;;4994125;28;20165;-75
2022/06/14 05:43:31;;;;;;;4.30;1.80;;;10.00;99.90;;;;;;4995270;28;20168;-75
2022/06/14 05:46:24;;;;;;;4.53;1.60;;;10.10;99.90;;;;;;4995107;28;20217;-75
2022/06/14 05:48:52;;;;;;;4.70;1.93;;;10.10;99.90;;;;;;4993497;28;20236;-75
2022/06/14 05:51:24;;;;;;;6.07;1.40;;;10.30;99.90;;;;;;4995356;28;20201;-75
2022/06/14 05:54:01;;;;;;;3.57;1.70;;;10.30;99.90;;;;;;4995116;28;20236;-75
2022/06/14 05:56:49;;;;;;;8.40;1.40;;;10.40;99.90;;;;;;4994965;28;20284;-76
2022/06/14 05:59:24;;;;;;;5.43;1.83;;;10.50;99.90;;;;;;4995252;28;20166;-75
2022/06/14 06:01:58;;;;;;;2.90;1.60;;;10.60;99.90;;;;;;4993662;28;20627;-75
2022/06/14 06:04:34;;;;;;;7.47;1.90;;;10.70;99.90;;;;;;4994859;28;20185;-76
2022/06/14 06:07:04;;;;;;;9.03;2.77;;;10.80;99.90;;;;;;4994726;28;20235;-75
2022/06/14 06:09:40;;;;;;;7.30;3.13;;;10.90;99.90;;;;;;4995232;28;20234;-75
2022/06/14 06:12:18;;;;;;;10.07;2.47;;;11.00;99.90;;;;;;4994785;28;20165;-75
2022/06/14 06:15:00;;;;;;;10.10;2.80;;;11.10;99.90;;;;;;4994509;28;20217;-75
2022/06/14 06:17:34;;;;;;;7.73;2.60;;;11.20;99.90;;;;;;4993085;28;20176;-75
2022/06/14 06:20:34;;;;;;;10.53;3.10;;;11.30;99.90;;;;;;4993781;28;20220;-75
2022/06/14 06:23:11;;;;;;;9.20;3.23;;;11.50;99.90;;;;;;4993175;28;20184;-75
2022/06/14 06:25:40;;;;;;;9.90;4.03;;;11.60;99.90;;;;;;4994357;28;20205;-76
2022/06/14 06:28:14;;;;;;;10.83;3.50;;;11.80;99.90;;;;;;4993055;28;20178;-75
2022/06/14 06:31:08;;;;;;;7.47;3.10;;;12.00;99.90;;;;;;4994285;28;20572;-75
2022/06/14 06:33:40;;;;;;;6.60;2.97;;;12.20;99.90;;;;;;4994261;28;20553;-75
2022/06/14 06:36:38;;;;;;;9.77;3.63;;;12.40;99.90;;;;;;4994130;28;20190;-75
2022/06/14 06:39:27;;;;;;;11.30;3.27;;;12.60;99.90;;;;;;4992492;28;20196;-75
2022/06/14 06:41:56;;;;;;;10.17;2.83;;;12.80;99.90;;;;;;4992355;28;20211;-75
2022/06/14 06:44:37;;;;;;;11.00;3.10;;;12.90;99.90;;;;;;4994228;28;20197;-75
2022/06/14 06:47:29;;;;;;;7.00;2.73;;;13.10;99.90;;;;;;4993975;28;20268;-75
2022/06/14 06:50:28;;;;;;;6.30;2.50;;;13.20;99.90;;;;;;4994219;28;20687;-75
2022/06/14 06:53:20;;;;;;;11.00;2.53;;;13.30;99.90;;;;;;4994204;28;20196;-75
2022/06/14 06:56:11;;;;;;;9.73;2.97;;;13.40;99.90;;;;;;4994153;28;20197;-75
2022/06/14 06:58:39;;;;;;;12.40;2.80;;;13.50;99.90;;;;;;4993867;28;20173;-75
2022/06/14 07:01:33;;;;;;;9.87;2.73;;;13.60;1.00;;;;;;4992532;28;20644;-75
2022/06/14 07:04:19;;;;;;;10.73;2.80;;;13.70;1.00;;;;;;4991808;28;20240;-75
2022/06/14 07:06:56;;;;;;;10.83;3.07;;;13.70;1.00;;;;;;4993685;28;20201;-75
2022/06/14 07:09:21;;;;;;;8.80;2.67;;;13.80;1.00;;;;;;4994256;28;20248;-75
2022/06/14 07:11:54;;;;;;;8.97;2.57;;;13.80;99.90;;;;;;4993877;28;20202;-75
2022/06/14 07:14:48;;;;;;;8.03;2.50;;;13.90;60.30;;;;;;4993641;28;20160;-75
2022/06/14 07:17:26;;;;;;;9.40;2.40;;;13.90;99.90;;;;;;4993959;28;20154;-75
2022/06/14 07:20:01;;;;;;;6.63;2.30;;;14.00;99.90;;;;;;4993875;28;20171;-75
2022/06/14 07:22:50;;;;;;;10.23;2.50;;;14.10;99.90;;;;;;4992223;28;20172;-75
2022/06/14 07:25:21;;;;;;;13.87;2.83;;;14.10;1.00;;;;;;4993170;28;20276;-75
2022/06/14 07:27:54;;;;;;;7.50;2.70;;;14.10;1.00;;;;;;4997635;28;20146;-75
2022/06/14 07:30:28;;;;;;;8.63;3.43;;;14.20;99.90;;;;;;4998733;28;20162;-75
2022/06/14 07:32:57;;;;;;;8.50;3.27;;;14.20;99.90;;;;;;5000065;28;20165;-75
2022/06/14 07:35:31;;;;;;;7.50;2.93;;;14.30;1.00;;;;;;4998602;28;20288;-75
2022/06/14 07:38:25;;;;;;;8.47;2.17;;;14.30;99.90;;;;;;4998692;28;20253;-75
2022/06/14 07:41:04;;;;;;;7.90;2.90;;;14.30;1.00;;;;;;4999954;28;20173;-75
2022/06/14 07:43:46;;;;;;;7.00;1.60;;;14.30;99.90;;;;;;4998636;28;20162;-75
2022/06/14 07:46:19;;;;;;;3.57;1.63;;;14.40;1.00;;;;;;4999690;28;20205;-75
2022/06/14 07:48:57;;;;;;;10.73;2.40;;;14.40;1.00;;;;;;5000191;28;20164;-75
2022/06/14 07:51:31;;;;;;;7.83;2.20;;;14.50;99.90;;;;;;5000139;28;20788;-76
2022/06/14 07:54:01;;;;;;;9.30;2.23;;;14.60;99.90;;;;;;4999817;28;20165;-75
2022/06/14 07:56:32;;;;;;;6.27;2.13;;;14.70;99.90;;;;;;4998442;28;20259;-76
2022/06/14 07:59:06;;;;;;;11.90;2.37;;;14.80;1.00;;;;;;5000048;28;20170;-75
2022/06/14 08:01:45;;;;;;;5.57;1.90;;;14.90;1.00;;;;;;4999799;28;20186;-75
2022/06/14 08:04:29;;;;;;;8.70;2.33;;;15.10;1.00;;;;;;4999673;28;20168;-75
2022/06/14 08:07:09;;;;;;;8.07;2.53;;;15.20;69.60;;;;;;4998371;28;20556;-75
2022/06/14 08:09:44;;;;;;;6.90;2.27;;;15.30;99.90;;;;;;5000007;28;20162;-75
2022/06/14 08:12:12;;;;;;;9.30;2.50;;;15.40;1.00;;;;;;4999669;28;20153;-75
2022/06/14 08:14:52;;;;;;;11.77;2.90;;;15.50;1.00;;;;;;4999635;28;20319;-75
2022/06/14 08:17:29;;;;;;;9.00;3.00;;;15.60;99.90;;;;;;4998392;28;20308;-75
2022/06/14 08:20:01;;;;;;;8.10;3.40;;;15.70;99.90;;;;;;4999586;28;20158;-75
2022/06/14 08:22:37;;;;;;;6.40;3.27;;;15.80;99.90;;;;;;4999649;28;20245;-75
2022/06/14 08:25:12;;;;;;;23.93;6.33;;;15.90;99.90;;;;;;4998093;28;20200;-76
2022/06/14 08:27:45;;;;;;;14.17;4.17;;;16.00;7.80;;;;;;4998264;28;20659;-75
2022/06/14 08:30:16;;;;;;;9.37;3.90;;;16.10;1.00;;;;;;4999554;28;20162;-76
2022/06/14 08:33:04;;;;;;;9.73;3.37;;;16.30;99.90;;;;;;4999795;28;20169;-75
2022/06/14 08:35:43;;;;;;;7.07;3.37;;;16.40;1.00;;;;;;4999481;28;20197;-75
2022/06/14 08:38:14;;;;;;;10.83;3.60;;;16.40;1.00;;;;;;4998744;28;20174;-75
2022/06/14 08:41:05;;;;;;;13.13;4.40;;;16.40;1.00;;;;;;4996440;28;20162;-75
2022/06/14 08:43:50;;;;;;;10.23;4.43;;;16.30;99.90;;;;;;4995008;28;20290;-75
2022/06/14 08:46:33;;;;;;;8.83;3.90;;;16.30;1.00;;;;;;4996418;28;20270;-75
2022/06/14 08:49:37;;;;;;;12.07;3.87;;;16.30;1.00;;;;;;4995010;28;20168;-76
2022/06/14 08:52:55;;;;;;;8.90;4.10;;;16.30;1.00;;;;;;4996662;28;20158;-75
2022/06/14 08:56:00;;;;;;;8.43;3.83;;;16.20;1.00;;;;;;4996331;28;20568;-76
2022/06/14 08:58:44;;;;;;;12.47;4.17;;;16.10;1.00;;;;;;4994751;28;20173;-75
2022/06/14 09:01:32;;;;;;;15.27;4.07;;;16.10;1.00;;;;;;4996257;28;20162;-75
2022/06/14 09:04:01;;;;;;;10.27;4.17;;;16.10;1.00;;;;;;4996225;28;20169;-75
2022/06/14 09:07:04;;;;;;;9.83;4.10;;;16.10;1.00;;;;;;4994399;28;20213;-75
2022/06/14 09:10:00;;;;;;;10.67;4.13;;;16.20;1.00;;;;;;4996084;28;20179;-75
2022/06/14 09:12:51;;;;;;;8.83;3.43;;;16.20;99.90;;;;;;4995944;28;20620;-75
2022/06/14 09:15:38;;;;;;;9.93;3.90;;;16.40;99.90;;;;;;4995627;28;20659;-77
2022/06/14 09:18:46;;;;;;;11.47;3.80;;;16.60;99.90;;;;;;4995642;28;20169;-75
2022/06/14 09:21:16;;;;;;;16.57;3.80;;;16.70;1.00;;;;;;4994344;28;20209;-75
2022/06/14 09:24:10;;;;;;;16.23;3.43;;;16.80;1.00;;;;;;4995565;28;20663;-75
2022/06/14 09:26:51;;;;;;;7.87;3.37;;;16.90;1.00;;;;;;4994535;28;20272;-75
2022/06/14 09:29:34;;;;;;;6.13;3.33;;;17.00;1.00;;;;;;4995736;28;20162;-76
2022/06/14 09:32:06;;;;;;;8.40;4.00;;;17.20;95.40;;;;;;4995769;28;20166;-77
2022/06/14 09:34:51;;;;;;;8.43;3.50;;;17.40;99.90;;;;;;4994385;28;20583;-76
2022/06/14 09:38:00;;;;;;;6.70;3.23;;;17.40;99.90;;;;;;4994149;28;20252;-75
2022/06/14 09:40:43;;;;;;;8.83;3.17;;;17.50;99.90;;;;;;4995560;28;20193;-75
2022/06/14 09:43:27;;;;;;;8.73;3.73;;;17.60;1.00;;;;;;4995214;28;20162;-75
2022/06/14 09:46:13;;;;;;;9.10;3.93;;;17.50;1.00;;;;;;4995319;28;20209;-75
2022/06/14 09:49:06;;;;;;;7.53;3.53;;;17.50;1.00;;;;;;4993833;28;20173;-75
2022/06/14 09:51:49;;;;;;;5.83;3.70;;;17.40;1.00;;;;;;4993950;28;20246;-76
2022/06/14 09:54:23;;;;;;;7.73;4.17;;;17.40;1.00;;;;;;4995059;28;20162;-77
2022/06/14 09:57:32;;;;;;;10.70;4.37;;;17.40;1.00;;;;;;4994875;28;20265;-75
2022/06/14 10:00:31;;;;;;;7.77;3.60;;;17.40;1.00;;;;;;4993604;28;20177;-76
2022/06/14 10:03:29;;;;;;;10.10;3.97;;;17.40;1.00;;;;;;4995092;28;20496;-76
2022/06/14 10:06:07;;;;;;;10.87;4.10;;;17.50;1.00;;;;;;4994603;28;20284;-76
2022/06/14 10:08:44;;;;;;;9.93;4.23;;;17.50;99.90;;;;;;4994744;28;20154;-75
2022/06/14 10:12:13;;;;;;;11.23;4.10;;;17.50;99.90;;;;;;4994692;28;20161;-76
2022/06/14 10:14:51;;;;;;;8.03;4.03;;;17.60;99.90;;;;;;4992844;28;20534;-75
2022/06/14 10:18:04;;;;;;;9.20;3.90;;;17.70;99.90;;;;;;4992553;28;20614;-76
2022/06/14 10:20:57;;;;;;;9.63;4.53;;;17.90;99.90;;;;;;4958548;28;20277;-76
2022/06/14 10:23:25;;;;;;;7.10;4.07;;;18.10;99.70;;;;;;4993592;28;20181;-77
2022/06/14 10:29:04;;;;;;;11.27;4.13;;;18.10;99.90;;;;;;5036442;28;20199;-79
2022/06/14 10:31:39;;;;;;;7.73;3.70;;;18.10;99.90;;;;;;5051211;28;20634;-77
2022/06/14 10:34:20;;;;;;;8.60;4.10;;;18.40;99.90;;;;;;5035775;28;20699;-78
2022/06/14 10:37:11;;;;;;;7.03;4.30;;;18.30;1.00;;;;;;5036633;28;20227;-78
2022/06/14 10:39:43;;;;;;;9.57;4.70;;;18.30;30.50;;;;;;5007898;28;20195;-79
2022/06/14 10:42:23;;;;;;;14.57;6.30;;;18.40;99.90;;;;;;5036700;28;20187;-78
2022/06/14 10:45:12;;;;;;;11.33;5.80;;;18.50;27.60;;;;;;5035888;28;20188;-79
2022/06/14 10:47:55;;;;;;;11.27;6.17;;;18.50;1.00;;;;;;5035129;28;20267;-78
2022/06/14 10:50:49;;;;;;;13.60;5.83;;;18.50;76.40;;;;;;5036677;28;20161;-79
2022/06/14 10:53:20;;;;;;;9.77;5.40;;;18.50;5.40;;;;;;5035942;28;20168;-78
2022/06/14 10:56:21;;;;;;;9.67;5.20;;;18.60;99.90;;;;;;5036870;28;20200;-78
2022/06/14 10:59:12;;;;;;;10.10;4.40;;;18.60;1.00;;;;;;4994512;28;20236;-79
2022/06/14 11:01:49;;;;;;;8.13;4.07;;;18.70;99.90;;;;;;5021961;28;20195;-78
2022/06/14 11:04:26;;;;;;;8.90;3.93;;;18.90;99.90;;;;;;5037018;28;20183;-79
2022/06/14 11:07:09;;;;;;;9.13;3.93;;;19.00;99.90;;;;;;5035485;28;20196;-79
2022/06/14 11:09:57;;;;;;;10.23;4.50;;;19.00;1.00;;;;;;5035878;28;20172;-78
2022/06/14 11:12:42;;;;;;;6.67;4.10;;;19.00;1.00;;;;;;5035174;28;20169;-79
2022/06/14 11:15:13;;;;;;;13.37;4.73;;;19.10;1.00;;;;;;5036045;28;20188;-79
2022/06/14 11:17:54;;;;;;;8.47;4.47;;;19.10;1.00;;;;;;5034201;28;20259;-79
2022/06/14 11:20:41;;;;;;;9.17;4.80;;;19.10;1.00;;;;;;5036335;28;20714;-80
2022/06/14 11:23:27;;;;;;;11.13;4.30;;;19.20;1.00;;;;;;5036686;28;20171;-80
2022/06/14 11:26:06;;;;;;;8.13;4.30;;;19.30;99.90;;;;;;5034601;28;20685;-78
2022/06/14 11:28:40;;;;;;;7.90;4.87;;;19.40;1.00;;;;;;5036032;28;20216;-80
2022/06/14 11:31:08;;;;;;;10.40;4.77;;;19.40;1.00;;;;;;5035315;28;20176;-79
2022/06/14 11:34:04;;;;;;;7.27;4.07;;;19.50;55.80;;;;;;5037079;28;20615;-79
2022/06/14 11:36:56;;;;;;;11.33;4.40;;;19.50;1.00;;;;;;5035856;28;20192;-79
2022/06/14 11:39:39;;;;;;;7.67;4.47;;;19.50;1.00;;;;;;5037369;28;20161;-79
2022/06/14 11:42:12;;;;;;;10.27;4.57;;;19.60;1.00;;;;;;5037809;28;20161;-80
2022/06/14 11:44:52;;;;;;;14.73;4.53;;;19.70;1.00;;;;;;5036877;28;20184;-79
2022/06/14 11:47:26;;;;;;;8.37;3.70;;;19.60;1.00;;;;;;5036407;28;20184;-80
2022/06/14 11:50:18;;;;;;;8.47;4.50;;;19.70;1.00;;;;;;5046101;28;20256;-78
2022/06/14 11:53:13;;;;;;;10.10;4.37;;;19.80;1.00;;;;;;5044820;28;20207;-78
2022/06/14 11:55:59;;;;;;;7.83;4.00;;;19.60;1.00;;;;;;5035960;28;20274;-79
2022/06/14 11:58:50;;;;;;;12.07;3.87;;;19.70;1.00;;;;;;5035257;28;20158;-79
2022/06/14 12:01:31;;;;;;;12.03;4.00;;;19.80;1.00;;;;;;5036356;28;20161;-79
2022/06/14 12:04:31;;;;;;;8.57;3.57;;;19.80;99.90;;;;;;5034229;28;20234;-80
2022/06/14 12:07:21;;;;;;;7.17;3.27;;;19.90;1.00;;;;;;5036221;28;20196;-78
2022/06/14 12:10:17;;;;;;;10.90;3.70;;;20.00;99.90;;;;;;5036038;28;20226;-80
2022/06/14 12:13:05;;;;;;;9.87;3.60;;;20.00;99.90;;;;;;5033926;28;20175;-78
2022/06/14 12:15:34;;;;;;;5.77;3.20;;;20.10;99.90;;;;;;5040069;28;20161;-80
2022/06/14 12:18:02;;;;;;;8.73;3.67;;;20.10;99.90;;;;;;5039729;28;20172;-80
2022/06/14 12:20:40;;;;;;;7.60;3.10;;;20.10;99.90;;;;;;5041407;28;20195;-80
2022/06/14 12:23:29;;;;;;;7.17;3.10;;;20.10;99.90;;;;;;5040338;28;20546;-79
2022/06/14 12:28:55;;;;;;;6.87;3.23;;;20.20;2.20;;;;;;5038881;28;20187;-80
2022/06/14 12:31:27;;;;;;;3.87;2.17;;;20.20;99.90;;;;;;5039328;28;20169;-80
2022/06/14 12:34:03;;;;;;;9.43;2.87;;;20.30;1.00;;;;;;5037071;28;20168;-79
2022/06/14 12:36:51;;;;;;;7.73;3.10;;;20.40;99.90;;;;;;5038860;28;20254;-80
2022/06/14 12:39:22;;;;;;;9.90;2.80;;;20.60;99.90;;;;;;5040336;28;20157;-80
2022/06/14 12:42:11;;;;;;;8.80;2.83;;;20.70;99.90;;;;;;5039499;28;20161;-79
2022/06/14 12:44:42;;;;;;;5.33;2.60;;;20.80;97.70;;;;;;5038162;28;20601;-79
2022/06/14 12:47:16;;;;;;;4.07;2.50;;;20.90;90.10;;;;;;5037916;28;20192;-79
2022/06/14 12:49:45;;;;;;;8.03;2.90;;;20.70;1.00;;;;;;5036894;28;20182;-79
2022/06/14 12:52:17;;;;;;;8.17;2.77;;;20.70;1.00;;;;;;5037985;28;20263;-80
2022/06/14 12:54:54;;;;;;;6.57;2.60;;;20.80;99.90;;;;;;5037045;28;20175;-80
2022/06/14 12:57:39;;;;;;;12.60;2.70;;;20.90;99.90;;;;;;5038004;28;20286;-81
2022/06/14 13:00:07;;;;;;;5.23;2.50;;;21.00;99.90;;;;;;5038758;28;20152;-79
2022/06/14 13:02:44;;;;;;;10.67;2.53;;;21.10;1.00;;;;;;5036356;28;20208;-79
2022/06/14 13:05:10;;;;;;;4.87;2.33;;;20.90;1.00;;;;;;5038158;28;20188;-79
2022/06/14 13:07:57;;;;;;;7.93;2.60;;;21.10;1.00;;;;;;5038276;28;20203;-80
2022/06/14 13:10:41;;;;;;;6.00;2.43;;;21.20;99.90;;;;;;5038136;28;20157;-79
2022/06/14 13:13:55;;;;;;;4.00;2.30;;;21.40;99.90;;;;;;5036078;28;20187;-76
2022/06/14 13:16:36;;;;;;;5.30;2.23;;;21.60;1.00;;;;;;5002215;28;20201;-79
2022/06/14 13:19:18;;;;;;;7.67;2.60;;;21.80;43.40;;;;;;5037144;28;20172;-79
2022/06/14 13:21:52;;;;;;;6.57;2.90;;;21.70;1.00;;;;;;5038019;28;20180;-78
2022/06/14 13:24:20;;;;;;;7.47;2.07;;;21.70;1.00;;;;;;5036750;28;20595;-80
2022/06/14 13:27:19;;;;;;;4.83;1.90;;;21.80;1.00;;;;;;5036696;28;20716;-80
2022/06/14 13:29:58;;;;;;;4.00;1.90;;;21.90;1.00;;;;;;5038805;28;20161;-80
2022/06/14 13:32:45;;;;;;;4.07;1.60;;;22.10;1.00;;;;;;5038100;28;20172;-79
2022/06/14 13:35:30;;;;;;;4.50;1.83;;;22.20;1.00;;;;;;5038813;28;20504;-79
2022/06/14 13:38:14;;;;;;;7.40;2.00;;;22.30;1.00;;;;;;5039119;28;20538;-80
2022/06/14 13:40:51;;;;;;;6.33;2.30;;;22.30;1.00;;;;;;5038338;28;20168;-79
2022/06/14 13:43:39;;;;;;;4.20;2.20;;;22.40;1.00;;;;;;5038334;28;20160;-79
2022/06/14 13:46:18;;;;;;;5.93;2.23;;;22.60;1.00;;;;;;5037532;28;20236;-78
2022/06/14 13:49:01;;;;;;;7.57;1.80;;;22.60;1.00;;;;;;5038834;28;20174;-78
2022/06/14 13:51:41;;;;;;;5.73;2.20;;;22.60;1.00;;;;;;5036037;28;20255;-79
2022/06/14 13:54:31;;;;;;;6.40;1.90;;;22.50;1.00;;;;;;5038403;28;20215;-80
2022/06/14 13:57:13;;;;;;;4.27;1.70;;;22.80;1.00;;;;;;5038343;28;20196;-81
2022/06/14 13:59:44;;;;;;;9.20;1.73;;;23.00;1.00;;;;;;5047672;28;20160;-80
2022/06/14 14:02:48;;;;;;;5.63;1.97;;;23.30;1.00;;;;;;5038922;28;20623;-79
2022/06/14 14:05:41;;;;;;;4.70;1.90;;;23.40;1.00;;;;;;4979287;28;20205;-80
2022/06/14 14:08:23;;;;;;;4.10;1.80;;;23.20;1.00;;;;;;5037036;28;20720;-80
2022/06/14 14:11:16;;;;;;;6.57;2.60;;;23.40;1.00;;;;;;5036684;28;20538;-79